createdAt,value
2023-02-27T00:01:20.553Z,-1.10
2023-02-27T00:03:47.533Z,-1.10
2023-02-27T00:06:14.780Z,-1.00
2023-02-27T00:08:41.806Z,-0.90
2023-02-27T00:11:08.926Z,-1.00
2023-02-27T00:13:36.290Z,-1.00
2023-02-27T00:16:03.464Z,-1.00
2023-02-27T00:18:30.687Z,-1.10
2023-02-27T00:20:57.802Z,-1.10
2023-02-27T00:23:24.804Z,-1.10
2023-02-27T00:25:52.513Z,-1.00
2023-02-27T00:28:19.652Z,-1.00
2023-02-27T00:30:46.830Z,-1.00
2023-02-27T00:33:14.066Z,-1.00
2023-02-27T00:35:41.478Z,-0.90
2023-02-27T00:38:08.608Z,-0.90
2023-02-27T00:40:36.128Z,-0.90
2023-02-27T00:43:04.452Z,-0.80
2023-02-27T00:45:31.504Z,-0.70
2023-02-27T00:47:58.652Z,-0.60
2023-02-27T00:50:25.641Z,-0.60
2023-02-27T00:52:52.790Z,-0.60
2023-02-27T00:55:19.834Z,-0.50
2023-02-27T00:57:46.973Z,-0.50
2023-02-27T01:00:14.496Z,-0.50
2023-02-27T01:02:41.978Z,-0.50
2023-02-27T01:05:10.224Z,-0.50
2023-02-27T01:07:37.826Z,-0.50
2023-02-27T01:10:06.605Z,-0.50
2023-02-27T01:12:33.676Z,-0.50
2023-02-27T01:15:01.046Z,-0.60
2023-02-27T01:17:28.027Z,-0.60
2023-02-27T01:19:55.089Z,-0.60
2023-02-27T01:22:22.157Z,-0.60
2023-02-27T01:24:49.106Z,-0.60
2023-02-27T01:27:16.221Z,-0.60
2023-02-27T01:29:43.513Z,-0.50
2023-02-27T01:32:10.886Z,-0.50
2023-02-27T01:34:38.126Z,-0.50
2023-02-27T01:37:05.133Z,-0.50
2023-02-27T01:39:33.161Z,-0.50
2023-02-27T01:42:02.310Z,-0.50
2023-02-27T01:44:31.646Z,-0.50
2023-02-27T01:46:58.817Z,-0.50
2023-02-27T01:49:29.820Z,-0.50
2023-02-27T01:52:06.392Z,-0.50
2023-02-27T01:54:38.259Z,-0.50
2023-02-27T01:57:09.891Z,-0.50
2023-02-27T01:59:41.304Z,-0.50
2023-02-27T02:02:20.747Z,-0.50
2023-02-27T02:04:50.512Z,-0.50
2023-02-27T02:07:21.150Z,-0.40
2023-02-27T02:09:55.147Z,-0.40
2023-02-27T02:12:27.152Z,-0.40
2023-02-27T02:14:54.270Z,-0.40
2023-02-27T02:17:49.307Z,-0.40
2023-02-27T02:20:41.090Z,-0.30
2023-02-27T02:23:29.278Z,-0.40
2023-02-27T02:25:59.499Z,-0.40
2023-02-27T02:29:09.819Z,-0.30
2023-02-27T02:31:58.410Z,-0.30
2023-02-27T02:34:45.279Z,-0.30
2023-02-27T02:37:51.145Z,-0.30
2023-02-27T02:40:48.519Z,-0.30
2023-02-27T02:43:20.418Z,-0.30
2023-02-27T02:46:10.530Z,-0.30
2023-02-27T02:48:58.259Z,-0.20
2023-02-27T02:51:49.188Z,-0.20
2023-02-27T02:54:43.360Z,-0.20
2023-02-27T02:57:19.731Z,-0.10
2023-02-27T02:59:55.766Z,-0.10
2023-02-27T03:02:29.654Z,-0.10
2023-02-27T03:05:04.763Z,-0.10
2023-02-27T03:07:44.249Z,0.00
2023-02-27T03:10:11.658Z,-0.10
2023-02-27T03:12:42.558Z,0.00
2023-02-27T03:15:21.622Z,0.00
2023-02-27T03:17:56.711Z,0.00
2023-02-27T03:20:29.508Z,0.00
2023-02-27T03:23:00.178Z,0.00
2023-02-27T03:25:28.912Z,0.00
2023-02-27T03:28:06.818Z,0.00
2023-02-27T03:30:38.388Z,0.00
2023-02-27T03:33:12.494Z,0.00
2023-02-27T03:35:55.921Z,0.00
2023-02-27T03:38:51.529Z,0.00
2023-02-27T03:41:32.011Z,0.00
2023-02-27T03:44:10.600Z,0.00
2023-02-27T03:46:38.253Z,0.00
2023-02-27T03:49:06.148Z,0.00
2023-02-27T03:51:35.192Z,0.10
2023-02-27T03:54:14.771Z,0.10
2023-02-27T03:56:49.155Z,0.10
2023-02-27T03:59:17.074Z,0.10
2023-02-27T04:01:45.195Z,0.10
2023-02-27T04:04:16.128Z,0.20
2023-02-27T04:07:22.146Z,0.20
2023-02-27T04:10:28.974Z,0.20
2023-02-27T04:13:02.119Z,0.30
2023-02-27T04:15:37.737Z,0.30
2023-02-27T04:18:23.141Z,0.30
2023-02-27T04:20:56.588Z,0.30
2023-02-27T04:23:29.540Z,0.30
2023-02-27T04:26:30.825Z,0.30
2023-02-27T04:29:11.272Z,0.30
2023-02-27T04:32:04.902Z,0.30
2023-02-27T04:34:43.410Z,0.30
2023-02-27T04:37:45.173Z,0.40
2023-02-27T04:40:17.260Z,0.40
2023-02-27T04:42:55.067Z,0.40
2023-02-27T04:45:24.983Z,0.40
2023-02-27T04:48:02.130Z,0.50
2023-02-27T04:50:37.037Z,0.50
2023-02-27T04:53:35.176Z,0.50
2023-02-27T04:56:08.132Z,0.50
2023-02-27T04:59:14.723Z,0.60
2023-02-27T05:01:47.349Z,0.60
2023-02-27T05:04:19.088Z,0.60
2023-02-27T05:06:48.354Z,0.70
2023-02-27T05:09:21.062Z,0.70
2023-02-27T05:12:00.293Z,0.70
2023-02-27T05:14:59.829Z,0.70
2023-02-27T05:17:33.962Z,0.70
2023-02-27T05:20:02.370Z,0.70
2023-02-27T05:22:44.497Z,0.80
2023-02-27T05:25:37.516Z,0.80
2023-02-27T05:28:11.057Z,0.80
2023-02-27T05:30:50.150Z,0.80
2023-02-27T05:33:42.385Z,0.80
2023-02-27T05:36:24.012Z,0.80
2023-02-27T05:38:56.387Z,0.90
2023-02-27T05:41:31.954Z,0.90
2023-02-27T05:44:07.683Z,0.90
2023-02-27T05:46:39.478Z,0.90
2023-02-27T05:49:14.652Z,0.90
2023-02-27T05:51:45.183Z,1.00
2023-02-27T05:54:29.835Z,1.00
2023-02-27T05:56:59.574Z,1.00
2023-02-27T05:59:43.859Z,1.00
2023-02-27T06:02:12.241Z,1.00
2023-02-27T06:04:40.765Z,1.00
2023-02-27T06:07:08.647Z,1.10
2023-02-27T06:09:36.034Z,1.10
2023-02-27T06:12:03.091Z,1.10
2023-02-27T06:14:30.190Z,1.20
2023-02-27T06:16:57.391Z,1.20
2023-02-27T06:19:24.505Z,1.20
2023-02-27T06:21:51.517Z,1.20
2023-02-27T06:24:20.336Z,1.30
2023-02-27T06:26:48.566Z,1.30
2023-02-27T06:29:15.628Z,1.30
2023-02-27T06:31:42.879Z,1.20
2023-02-27T06:34:09.947Z,1.20
2023-02-27T06:36:37.038Z,1.30
2023-02-27T06:39:05.071Z,1.30
2023-02-27T06:41:32.117Z,1.30
2023-02-27T06:43:59.379Z,1.40
2023-02-27T06:46:29.478Z,1.50
2023-02-27T06:48:56.994Z,1.50
2023-02-27T06:51:24.219Z,1.50
2023-02-27T06:53:51.239Z,1.60
2023-02-27T06:56:18.389Z,1.70
2023-02-27T06:58:45.753Z,1.60
2023-02-27T07:01:13.646Z,1.70
2023-02-27T07:03:41.130Z,1.70
2023-02-27T07:06:08.327Z,1.70
2023-02-27T07:08:36.188Z,1.70
2023-02-27T07:11:03.253Z,1.70
2023-02-27T07:13:30.305Z,1.80
2023-02-27T07:15:57.396Z,1.80
2023-02-27T07:18:26.131Z,1.80
2023-02-27T07:20:55.325Z,1.90
2023-02-27T07:23:23.363Z,1.90
2023-02-27T07:25:50.543Z,1.90
2023-02-27T07:28:17.992Z,1.90
2023-02-27T07:30:45.976Z,2.00
2023-02-27T07:33:13.278Z,2.00
2023-02-27T07:35:40.533Z,2.10
2023-02-27T07:38:07.819Z,2.10
2023-02-27T07:40:34.941Z,2.10
2023-02-27T07:43:02.129Z,2.10
2023-02-27T07:45:30.032Z,2.10
2023-02-27T07:47:57.126Z,2.30
2023-02-27T07:50:24.238Z,2.30
2023-02-27T07:52:52.513Z,2.40
2023-02-27T07:55:19.773Z,2.50
2023-02-27T07:57:46.761Z,2.60
2023-02-27T08:00:16.670Z,2.70
2023-02-27T08:02:43.844Z,2.70
2023-02-27T08:05:11.633Z,2.70
2023-02-27T08:07:38.943Z,2.70
2023-02-27T08:10:06.497Z,2.80
2023-02-27T08:12:34.061Z,2.90
2023-02-27T08:15:01.216Z,2.90
2023-02-27T08:17:28.204Z,3.00
2023-02-27T08:19:55.602Z,3.10
2023-02-27T08:22:23.990Z,3.10
2023-02-27T08:24:52.030Z,3.20
2023-02-27T08:27:19.702Z,3.20
2023-02-27T08:29:46.765Z,3.20
2023-02-27T08:32:13.939Z,3.30
2023-02-27T08:34:45.359Z,3.40
2023-02-27T08:37:13.524Z,3.50
2023-02-27T08:39:40.736Z,3.50
2023-02-27T08:42:08.529Z,3.50
2023-02-27T08:44:35.710Z,3.60
2023-02-27T08:47:03.848Z,3.70
2023-02-27T08:49:30.919Z,3.70
2023-02-27T08:51:58.140Z,3.80
2023-02-27T08:54:26.325Z,3.80
2023-02-27T08:56:53.354Z,3.90
2023-02-27T08:59:20.446Z,3.90
2023-02-27T09:01:47.584Z,3.90
2023-02-27T09:04:14.818Z,3.90
2023-02-27T09:06:41.838Z,3.90
2023-02-27T09:09:09.569Z,4.00
2023-02-27T09:11:38.677Z,4.10
2023-02-27T09:14:06.867Z,4.10
2023-02-27T09:16:34.069Z,4.20
2023-02-27T09:19:01.297Z,4.30
2023-02-27T09:21:29.952Z,4.30
2023-02-27T09:24:02.548Z,4.20
2023-02-27T09:26:44.987Z,4.30
2023-02-27T09:29:13.222Z,4.30
2023-02-27T09:31:40.402Z,4.40
2023-02-27T09:34:07.852Z,4.50
2023-02-27T09:36:35.160Z,4.60
2023-02-27T09:39:02.297Z,4.70
2023-02-27T09:41:52.793Z,4.70
2023-02-27T09:44:46.996Z,4.90
2023-02-27T09:47:25.053Z,4.90
2023-02-27T09:50:09.295Z,4.90
2023-02-27T09:52:38.451Z,5.00
2023-02-27T09:55:12.642Z,5.10
2023-02-27T09:57:48.475Z,5.10
2023-02-27T10:00:45.067Z,5.20
2023-02-27T10:03:22.573Z,5.30
2023-02-27T10:06:24.355Z,5.40
2023-02-27T10:09:22.221Z,5.50
2023-02-27T10:12:07.486Z,5.60
2023-02-27T10:14:44.152Z,5.70
2023-02-27T10:17:34.917Z,5.70
2023-02-27T10:20:09.877Z,5.80
2023-02-27T10:22:42.871Z,5.70
2023-02-27T10:25:30.392Z,5.80
2023-02-27T10:28:08.906Z,5.80
2023-02-27T10:30:36.553Z,5.90
2023-02-27T10:33:30.046Z,6.00
2023-02-27T10:35:58.085Z,6.10
2023-02-27T10:38:39.505Z,6.10
2023-02-27T10:41:10.821Z,6.10
2023-02-27T10:43:38.064Z,6.10
2023-02-27T10:46:16.603Z,6.10
2023-02-27T10:48:44.889Z,6.10
2023-02-27T10:51:30.433Z,6.10
2023-02-27T10:54:24.949Z,6.10
2023-02-27T10:56:55.594Z,6.10
2023-02-27T10:59:41.905Z,6.10
2023-02-27T11:02:32.381Z,6.00
2023-02-27T11:05:00.330Z,5.90
2023-02-27T11:07:46.228Z,5.90
2023-02-27T11:10:26.747Z,6.00
2023-02-27T11:13:06.942Z,5.90
2023-02-27T11:15:38.771Z,5.90
2023-02-27T11:18:26.769Z,5.70
2023-02-27T11:20:54.581Z,5.80
2023-02-27T11:23:26.019Z,5.90
2023-02-27T11:26:17.387Z,6.00
2023-02-27T11:28:44.697Z,5.80
2023-02-27T11:31:23.653Z,5.90
2023-02-27T11:33:56.245Z,5.80
2023-02-27T11:36:23.917Z,5.90
2023-02-27T11:38:55.870Z,5.90
2023-02-27T11:41:34.661Z,5.90
2023-02-27T11:44:05.657Z,5.90
2023-02-27T11:46:46.992Z,6.00
2023-02-27T11:49:35.124Z,6.10
2023-02-27T11:52:37.268Z,6.00
2023-02-27T11:55:06.586Z,6.10
2023-02-27T11:57:41.542Z,6.10
2023-02-27T12:00:09.105Z,6.10
2023-02-27T12:02:44.719Z,6.20
2023-02-27T12:05:33.104Z,6.30
2023-02-27T12:08:18.761Z,6.30
2023-02-27T12:11:29.444Z,6.40
2023-02-27T12:14:09.574Z,6.40
2023-02-27T12:16:39.704Z,6.40
2023-02-27T12:19:26.517Z,6.40
2023-02-27T12:22:06.170Z,6.40
2023-02-27T12:24:58.168Z,6.50
2023-02-27T12:27:54.675Z,6.60
2023-02-27T12:30:33.856Z,6.70
2023-02-27T12:33:11.881Z,6.70
2023-02-27T12:35:43.248Z,6.80
2023-02-27T12:38:15.474Z,6.80
2023-02-27T12:40:55.142Z,6.80
2023-02-27T12:43:56.101Z,7.00
2023-02-27T12:47:03.954Z,7.00
2023-02-27T12:49:50.179Z,7.00
2023-02-27T12:52:45.300Z,7.20
2023-02-27T12:55:47.924Z,7.40
2023-02-27T12:58:36.734Z,7.90
2023-02-27T13:01:32.720Z,8.80
2023-02-27T13:04:14.344Z,9.50
2023-02-27T13:07:02.761Z,10.00
2023-02-27T13:09:48.589Z,10.30
2023-02-27T13:12:39.346Z,10.90
2023-02-27T13:15:18.442Z,10.90
2023-02-27T13:18:27.105Z,10.80
2023-02-27T13:21:20.494Z,10.30
2023-02-27T13:24:05.918Z,9.90
2023-02-27T13:26:58.697Z,9.50
2023-02-27T13:29:42.153Z,9.00
2023-02-27T13:32:43.720Z,8.90
2023-02-27T13:35:58.458Z,8.60
2023-02-27T13:38:33.725Z,8.30
2023-02-27T13:41:25.754Z,8.20
2023-02-27T13:44:18.638Z,8.10
2023-02-27T13:46:47.705Z,8.00
2023-02-27T13:49:29.689Z,7.90
2023-02-27T13:52:02.324Z,7.90
2023-02-27T13:54:40.072Z,8.00
2023-02-27T13:57:09.262Z,8.00
2023-02-27T13:59:41.269Z,7.90
2023-02-27T14:02:11.617Z,7.80
2023-02-27T14:04:49.476Z,7.70
2023-02-27T14:07:21.708Z,7.70
2023-02-27T14:09:53.402Z,7.70
2023-02-27T14:12:44.737Z,7.70
2023-02-27T14:15:21.769Z,7.70
2023-02-27T14:17:52.511Z,7.70
2023-02-27T14:20:30.878Z,7.60
2023-02-27T14:23:17.428Z,7.70
2023-02-27T14:25:55.056Z,7.70
2023-02-27T14:28:55.984Z,7.60
2023-02-27T14:31:38.861Z,7.60
2023-02-27T14:34:06.816Z,7.60
2023-02-27T14:36:41.952Z,7.60
2023-02-27T14:39:30.937Z,7.60
2023-02-27T14:42:26.180Z,7.60
2023-02-27T14:44:54.152Z,7.60
2023-02-27T14:47:38.015Z,7.50
2023-02-27T14:50:20.833Z,7.50
2023-02-27T14:52:47.969Z,7.50
2023-02-27T14:55:30.254Z,7.50
2023-02-27T14:58:10.139Z,7.50
2023-02-27T15:00:50.882Z,7.50
2023-02-27T15:03:24.186Z,7.50
2023-02-27T15:05:55.094Z,7.40
2023-02-27T15:08:28.064Z,7.40
2023-02-27T15:10:57.524Z,7.30
2023-02-27T15:13:39.697Z,7.30
2023-02-27T15:16:23.302Z,7.30
2023-02-27T15:18:56.674Z,7.20
2023-02-27T15:21:26.030Z,7.20
2023-02-27T15:24:06.981Z,7.20
2023-02-27T15:26:40.235Z,7.30
2023-02-27T15:29:09.006Z,7.20
2023-02-27T15:31:36.318Z,7.30
2023-02-27T15:34:04.140Z,7.20
2023-02-27T15:36:35.824Z,7.20
2023-02-27T15:39:06.497Z,7.20
2023-02-27T15:41:34.099Z,7.20
2023-02-27T15:44:03.281Z,7.10
2023-02-27T15:46:32.393Z,7.10
2023-02-27T15:48:59.953Z,7.10
2023-02-27T15:51:29.177Z,7.00
2023-02-27T15:53:59.574Z,7.00
2023-02-27T15:56:35.077Z,6.90
2023-02-27T15:59:02.983Z,6.80
2023-02-27T16:01:36.908Z,6.80
2023-02-27T16:04:20.987Z,6.70
2023-02-27T16:06:59.655Z,6.70
2023-02-27T16:09:35.966Z,6.70
2023-02-27T16:12:21.666Z,6.60
2023-02-27T16:14:52.987Z,6.60
2023-02-27T16:17:24.028Z,6.50
2023-02-27T16:19:51.081Z,6.50
2023-02-27T16:22:20.229Z,6.40
2023-02-27T16:24:47.879Z,6.40
2023-02-27T16:27:20.043Z,6.30
2023-02-27T16:29:47.876Z,6.30
2023-02-27T16:32:27.879Z,6.30
2023-02-27T16:35:16.583Z,6.20
2023-02-27T16:37:45.056Z,6.20
2023-02-27T16:40:23.854Z,6.10
2023-02-27T16:42:51.881Z,6.00
2023-02-27T16:45:21.641Z,6.00
2023-02-27T16:47:50.343Z,5.90
2023-02-27T16:50:30.692Z,5.90
2023-02-27T16:53:00.313Z,5.80
2023-02-27T16:55:28.009Z,5.80
2023-02-27T16:57:55.229Z,5.80
2023-02-27T17:00:25.801Z,5.80
2023-02-27T17:02:52.945Z,5.70
2023-02-27T17:05:20.143Z,5.70
2023-02-27T17:07:47.362Z,5.60
2023-02-27T17:10:22.455Z,5.60
2023-02-27T17:12:49.751Z,5.60
2023-02-27T17:15:17.411Z,5.60
2023-02-27T17:17:45.554Z,5.60
2023-02-27T17:20:14.123Z,5.60
2023-02-27T17:22:43.708Z,5.60
2023-02-27T17:25:11.643Z,5.70
2023-02-27T17:27:39.377Z,5.60
2023-02-27T17:30:07.888Z,5.60
2023-02-27T17:32:35.277Z,5.60
2023-02-27T17:35:02.833Z,5.50
2023-02-27T17:37:30.210Z,5.50
2023-02-27T17:39:57.427Z,5.40
2023-02-27T17:42:26.027Z,5.40
2023-02-27T17:44:53.419Z,5.30
2023-02-27T17:47:20.709Z,5.40
2023-02-27T17:49:47.949Z,5.30
2023-02-27T17:52:15.195Z,5.30
2023-02-27T17:54:42.238Z,5.20
2023-02-27T17:57:10.567Z,5.20
2023-02-27T17:59:37.903Z,5.10
2023-02-27T18:02:05.148Z,5.10
2023-02-27T18:04:32.549Z,5.00
2023-02-27T18:06:59.760Z,5.00
2023-02-27T18:09:26.867Z,5.00
2023-02-27T18:11:53.910Z,5.00
2023-02-27T18:14:21.022Z,4.90
2023-02-27T18:16:48.370Z,4.90
2023-02-27T18:19:15.569Z,4.80
2023-02-27T18:21:44.690Z,4.70
2023-02-27T18:24:11.823Z,4.70
2023-02-27T18:26:39.733Z,4.60
2023-02-27T18:29:09.432Z,4.50
2023-02-27T18:31:43.001Z,4.50
2023-02-27T18:34:10.936Z,4.50
2023-02-27T18:36:38.507Z,4.40
2023-02-27T18:39:06.593Z,4.40
2023-02-27T18:41:34.557Z,4.40
2023-02-27T18:44:02.915Z,4.40
2023-02-27T18:46:36.780Z,4.40
2023-02-27T18:49:04.550Z,4.30
2023-02-27T18:51:52.507Z,4.30
2023-02-27T18:54:32.769Z,4.40
2023-02-27T18:57:02.759Z,4.40
2023-02-27T18:59:30.977Z,4.40
2023-02-27T19:02:29.721Z,4.50
2023-02-27T19:06:36.345Z,4.60
2023-02-27T19:08:38.854Z,4.60
2023-02-27T19:11:27.739Z,4.60
2023-02-27T19:14:25.438Z,4.50
2023-02-27T19:16:58.193Z,4.40
2023-02-27T19:19:51.258Z,4.40
2023-02-27T19:22:45.060Z,4.40
2023-02-27T19:25:24.232Z,4.30
2023-02-27T19:36:09.260Z,4.20
2023-02-27T19:37:57.307Z,4.30
2023-02-27T19:41:22.310Z,4.30
2023-02-27T19:45:17.490Z,4.30
2023-02-27T19:46:54.289Z,4.10
2023-02-27T19:50:08.741Z,4.00
2023-02-27T19:55:04.299Z,3.90
2023-02-27T20:07:34.602Z,3.90
2023-02-27T20:13:41.562Z,3.80
2023-02-27T20:16:49.284Z,3.80
2023-02-27T20:25:44.529Z,3.80
2023-02-27T20:30:02.293Z,3.70
2023-02-27T20:34:37.279Z,3.70
2023-02-27T20:37:04.536Z,3.80
2023-02-27T20:39:38.776Z,3.70
2023-02-27T20:42:08.334Z,3.70
2023-02-27T20:44:35.837Z,3.70
2023-02-27T20:47:10.134Z,3.70
2023-02-27T20:49:38.196Z,3.60
2023-02-27T20:52:05.609Z,3.60
2023-02-27T20:54:32.876Z,3.60
2023-02-27T20:57:00.250Z,3.50
2023-02-27T20:59:27.556Z,3.50
2023-02-27T21:01:55.926Z,3.50
2023-02-27T21:04:42.487Z,3.50
2023-02-27T21:07:15.316Z,3.50
2023-02-27T21:09:42.820Z,3.50
2023-02-27T21:12:10.640Z,3.60
2023-02-27T21:14:38.302Z,3.60
2023-02-27T21:17:06.268Z,3.50
2023-02-27T21:19:33.367Z,3.60
2023-02-27T21:22:00.633Z,3.60
2023-02-27T21:24:29.942Z,3.60
2023-02-27T21:26:57.016Z,3.60
2023-02-27T21:29:24.856Z,3.60
2023-02-27T21:31:54.957Z,3.50
2023-02-27T21:34:27.566Z,3.50
2023-02-27T21:36:55.336Z,3.40
2023-02-27T21:39:24.761Z,3.40
2023-02-27T21:41:52.427Z,3.40
2023-02-27T21:44:32.013Z,3.40
2023-02-27T21:47:10.351Z,3.30
2023-02-27T21:49:39.964Z,3.30
2023-02-27T21:52:07.312Z,3.30
2023-02-27T21:54:35.913Z,3.20
2023-02-27T21:57:03.994Z,3.20
2023-02-27T21:59:31.966Z,3.20
2023-02-27T22:01:59.425Z,3.20
2023-02-27T22:04:26.999Z,3.20
2023-02-27T22:06:54.146Z,3.20
2023-02-27T22:09:21.520Z,3.10
2023-02-27T22:11:54.955Z,3.10
2023-02-27T22:14:21.999Z,3.10
2023-02-27T22:16:49.255Z,3.10
2023-02-27T22:19:20.036Z,3.10
2023-02-27T22:21:47.177Z,3.10
2023-02-27T22:24:14.806Z,3.10
2023-02-27T22:26:42.665Z,3.00
2023-02-27T22:29:09.812Z,3.00
2023-02-27T22:31:38.501Z,3.00
2023-02-27T22:34:13.204Z,3.00
2023-02-27T22:36:41.925Z,3.00
2023-02-27T22:39:10.737Z,3.00
2023-02-27T22:41:40.373Z,3.00
2023-02-27T22:44:09.024Z,3.00
2023-02-27T22:46:42.318Z,2.90
2023-02-27T22:49:16.145Z,2.90
2023-02-27T22:51:44.259Z,2.90
2023-02-27T22:54:13.954Z,2.90
2023-02-27T22:56:42.855Z,2.90
2023-02-27T22:59:10.326Z,2.90
2023-02-27T23:01:38.366Z,2.80
2023-02-27T23:04:08.299Z,2.80
2023-02-27T23:06:39.089Z,2.80
2023-02-27T23:09:08.851Z,2.80
2023-02-27T23:11:36.258Z,2.80
2023-02-27T23:14:03.457Z,2.80
2023-02-27T23:16:30.797Z,2.90
2023-02-27T23:18:59.653Z,2.90
2023-02-27T23:21:32.441Z,2.80
2023-02-27T23:23:59.768Z,2.80
2023-02-27T23:26:29.555Z,2.80
2023-02-27T23:28:57.517Z,2.80
2023-02-27T23:31:24.695Z,2.70
2023-02-27T23:33:51.847Z,2.70
2023-02-27T23:36:19.423Z,2.70
2023-02-27T23:38:49.145Z,2.70
2023-02-27T23:41:18.730Z,2.70
2023-02-27T23:43:45.778Z,2.80
2023-02-27T23:46:15.883Z,2.70
2023-02-27T23:48:43.093Z,2.70
2023-02-27T23:51:11.567Z,2.80
2023-02-27T23:53:42.337Z,2.80
2023-02-27T23:56:15.379Z,2.80
2023-02-27T23:58:43.529Z,2.80
